createdAt,value
2018-04-23T00:01:05.823Z,5.17
2018-04-23T00:03:33.324Z,5.50
2018-04-23T00:06:00.834Z,5.67
2018-04-23T00:08:28.471Z,5.47
2018-04-23T00:10:55.975Z,5.67
2018-04-23T00:13:23.475Z,4.93
2018-04-23T00:15:51.110Z,5.50
2018-04-23T00:18:18.616Z,5.37
2018-04-23T00:20:46.119Z,6.10
2018-04-23T00:23:13.735Z,6.07
2018-04-23T00:25:41.239Z,5.23
2018-04-23T00:28:09.509Z,5.60
2018-04-23T00:30:37.798Z,5.30
2018-04-23T00:33:06.063Z,5.17
2018-04-23T00:35:33.571Z,5.90
2018-04-23T00:38:01.244Z,5.50
2018-04-23T00:40:28.765Z,5.13
2018-04-23T00:42:57.040Z,6.43
2018-04-23T00:45:25.426Z,5.93
2018-04-23T00:47:53.701Z,5.73
2018-04-23T00:50:21.222Z,6.00
2018-04-23T00:53:00.620Z,5.77
2018-04-23T00:55:28.136Z,5.27
2018-04-23T00:57:55.631Z,5.43
2018-04-23T01:00:24.029Z,5.33
2018-04-23T01:02:52.285Z,5.03
2018-04-23T01:05:19.780Z,5.60
2018-04-23T01:07:47.307Z,4.90
2018-04-23T01:10:14.811Z,5.17
2018-04-23T01:12:42.318Z,4.60
2018-04-23T01:15:09.948Z,4.57
2018-04-23T01:17:37.451Z,5.00
2018-04-23T01:20:04.969Z,5.47
2018-04-23T01:22:32.509Z,5.03
2018-04-23T01:25:00.781Z,5.60
2018-04-23T01:27:29.191Z,4.73
2018-04-23T01:29:56.709Z,5.53
2018-04-23T01:32:24.207Z,5.33
2018-04-23T01:34:51.847Z,5.40
2018-04-23T01:37:19.349Z,5.73
2018-04-23T01:39:46.873Z,5.10
2018-04-23T01:42:14.583Z,4.97
2018-04-23T01:44:42.098Z,4.70
2018-04-23T01:47:09.608Z,5.23
2018-04-23T01:49:37.152Z,4.60
2018-04-23T01:52:05.431Z,5.10
2018-04-23T01:54:32.931Z,4.97
2018-04-23T01:57:00.544Z,5.30
2018-04-23T01:59:28.813Z,5.27
2018-04-23T02:01:56.319Z,4.83
2018-04-23T02:04:23.948Z,5.97
2018-04-23T02:06:51.445Z,5.80
2018-04-23T02:09:18.947Z,5.40
2018-04-23T02:11:46.479Z,5.43
2018-04-23T02:14:13.985Z,5.27
2018-04-23T02:16:41.474Z,5.60
2018-04-23T02:19:09.966Z,5.40
2018-04-23T02:21:37.486Z,4.97
2018-04-23T02:24:04.983Z,5.30
2018-04-23T02:26:33.390Z,5.47
2018-04-23T02:29:00.905Z,5.67
2018-04-23T02:31:28.417Z,5.67
2018-04-23T02:33:56.040Z,5.23
2018-04-23T02:36:23.596Z,6.00
2018-04-23T02:38:51.066Z,5.87
2018-04-23T02:41:18.706Z,5.57
2018-04-23T02:43:46.207Z,5.40
2018-04-23T02:46:14.482Z,5.40
2018-04-23T02:48:42.990Z,5.43
2018-04-23T02:51:10.502Z,5.23
2018-04-23T02:53:38.027Z,6.03
2018-04-23T02:56:05.663Z,5.80
2018-04-23T02:58:33.935Z,6.27
2018-04-23T03:01:01.457Z,6.23
2018-04-23T03:03:29.107Z,5.80
2018-04-23T03:05:56.626Z,6.70
2018-04-23T03:08:24.129Z,6.93
2018-04-23T03:10:51.861Z,5.93
2018-04-23T03:13:19.375Z,6.80
2018-04-23T03:15:46.876Z,5.90
2018-04-23T03:18:14.650Z,5.80
2018-04-23T03:20:42.170Z,6.33
2018-04-23T03:23:09.674Z,6.17
2018-04-23T03:25:37.291Z,5.93
2018-04-23T03:28:04.796Z,6.47
2018-04-23T03:30:32.315Z,6.27
2018-04-23T03:32:59.935Z,6.57
2018-04-23T03:35:27.450Z,6.53
2018-04-23T03:37:54.943Z,6.00
2018-04-23T03:40:22.467Z,6.33
2018-04-23T03:42:49.972Z,6.50
2018-04-23T03:45:17.487Z,6.20
2018-04-23T03:47:45.126Z,5.90
2018-04-23T03:50:13.400Z,7.20
2018-04-23T03:52:41.807Z,6.70
2018-04-23T03:55:09.329Z,6.37
2018-04-23T03:57:36.881Z,6.30
2018-04-23T04:00:04.484Z,6.03
2018-04-23T04:02:32.771Z,6.40
2018-04-23T04:05:01.085Z,6.47
2018-04-23T04:07:28.610Z,6.03
2018-04-23T04:09:56.892Z,6.27
2018-04-23T04:12:37.015Z,6.27
2018-04-23T04:15:16.318Z,7.40
2018-04-23T04:20:51.485Z,7.37
2018-04-23T04:23:19.124Z,7.67
2018-04-23T04:25:46.618Z,6.97
2018-04-23T04:28:14.118Z,7.97
2018-04-23T04:30:41.653Z,7.70
2018-04-23T04:33:09.172Z,7.17
2018-04-23T04:35:36.718Z,8.90
2018-04-23T04:38:04.248Z,8.03
2018-04-23T04:40:31.761Z,8.43
2018-04-23T04:42:59.275Z,8.27
2018-04-23T04:45:26.896Z,8.07
2018-04-23T04:47:54.431Z,9.03
2018-04-23T04:50:21.935Z,8.37
2018-04-23T04:52:49.474Z,8.87
2018-04-23T04:55:16.999Z,9.33
2018-04-23T04:57:44.519Z,9.17
2018-04-23T05:00:12.079Z,8.93
2018-04-23T05:02:39.623Z,9.07
2018-04-23T05:05:07.123Z,9.27
2018-04-23T05:07:34.785Z,9.17
2018-04-23T05:10:02.314Z,9.00
2018-04-23T05:12:29.832Z,8.93
2018-04-23T05:14:57.465Z,8.93
2018-04-23T05:17:25.003Z,9.00
2018-04-23T05:19:52.523Z,8.70
2018-04-23T05:22:20.154Z,8.97
2018-04-23T05:24:47.661Z,9.53
2018-04-23T05:27:15.179Z,8.73
2018-04-23T05:29:42.866Z,8.67
2018-04-23T05:32:10.374Z,7.57
2018-04-23T05:34:37.901Z,7.87
2018-04-23T05:37:05.614Z,7.13
2018-04-23T05:39:33.136Z,7.73
2018-04-23T05:42:00.703Z,7.10
2018-04-23T05:44:28.388Z,6.10
2018-04-23T05:46:55.927Z,5.83
2018-04-23T05:49:23.443Z,5.97
2018-04-23T05:51:51.085Z,5.90
2018-04-23T05:54:18.592Z,5.03
2018-04-23T05:56:46.143Z,5.43
2018-04-23T05:59:13.785Z,4.83
2018-04-23T06:01:41.290Z,4.80
2018-04-23T06:04:08.787Z,4.87
2018-04-23T06:06:36.420Z,5.10
2018-04-23T06:09:03.930Z,4.60
2018-04-23T06:11:31.439Z,4.63
2018-04-23T06:13:58.969Z,4.70
2018-04-23T06:16:26.483Z,4.73
2018-04-23T06:18:53.989Z,5.07
2018-04-23T06:21:21.660Z,4.03
2018-04-23T06:23:49.189Z,4.40
2018-04-23T06:26:16.697Z,4.17
2018-04-23T06:28:44.367Z,5.07
2018-04-23T06:31:11.889Z,5.00
2018-04-23T06:33:39.447Z,4.83
2018-04-23T06:36:07.061Z,4.97
2018-04-23T06:38:34.572Z,7.20
2018-04-23T06:41:02.088Z,5.13
2018-04-23T06:43:29.619Z,5.13
2018-04-23T06:45:57.138Z,5.80
2018-04-23T06:48:24.652Z,5.60
2018-04-23T06:50:52.277Z,5.20
2018-04-23T06:53:19.775Z,4.80
2018-04-23T06:55:47.285Z,5.97
2018-04-23T06:58:14.821Z,5.87
2018-04-23T07:00:42.422Z,5.77
2018-04-23T07:03:09.916Z,5.43
2018-04-23T07:05:37.535Z,5.93
2018-04-23T07:08:05.043Z,5.97
2018-04-23T07:10:32.611Z,6.13
2018-04-23T07:13:00.219Z,5.50
2018-04-23T07:15:27.736Z,5.23
2018-04-23T07:17:55.233Z,5.30
2018-04-23T07:20:22.871Z,5.43
2018-04-23T07:22:50.387Z,5.53
2018-04-23T07:25:17.901Z,7.00
2018-04-23T07:27:45.524Z,7.37
2018-04-23T07:30:13.036Z,7.17
2018-04-23T07:32:40.549Z,7.53
2018-04-23T07:35:08.079Z,6.37
2018-04-23T07:37:35.599Z,7.87
2018-04-23T07:40:03.125Z,12.43
2018-04-23T07:42:30.781Z,10.43
2018-04-23T07:44:59.063Z,9.40
2018-04-23T07:47:27.361Z,8.57
2018-04-23T07:49:55.012Z,10.53
2018-04-23T07:52:23.293Z,10.37
2018-04-23T07:54:51.569Z,9.63
2018-04-23T07:57:19.116Z,10.03
2018-04-23T07:59:46.631Z,9.27
2018-04-23T08:02:14.143Z,8.53
2018-04-23T08:04:41.794Z,8.73
2018-04-23T08:07:10.081Z,8.60
2018-04-23T08:09:37.641Z,8.57
2018-04-23T08:12:05.272Z,7.60
2018-04-23T08:14:32.795Z,7.60
2018-04-23T08:17:01.086Z,8.07
2018-04-23T08:19:29.388Z,8.83
2018-04-23T08:21:56.896Z,7.30
2018-04-23T08:24:24.400Z,7.47
2018-04-23T08:26:52.856Z,7.50
2018-04-23T08:29:20.402Z,7.30
2018-04-23T08:31:47.931Z,7.30
2018-04-23T08:34:16.347Z,7.40
2018-04-23T08:36:43.875Z,7.30
2018-04-23T08:39:12.148Z,6.83
2018-04-23T08:41:40.667Z,7.10
2018-04-23T08:44:08.202Z,7.57
2018-04-23T08:46:35.727Z,7.70
2018-04-23T08:49:04.127Z,8.40
2018-04-23T08:51:32.435Z,6.73
2018-04-23T08:53:59.964Z,7.53
2018-04-23T08:56:27.531Z,6.97
2018-04-23T08:58:55.065Z,5.93
2018-04-23T09:01:22.576Z,6.77
2018-04-23T09:03:51.012Z,6.87
2018-04-23T09:06:18.523Z,5.80
2018-04-23T09:08:46.842Z,5.27
2018-04-23T09:11:14.374Z,5.23
2018-04-23T09:13:42.652Z,5.03
2018-04-23T09:16:11.116Z,6.00
2018-04-23T09:18:38.636Z,5.13
2018-04-23T09:21:06.185Z,5.33
2018-04-23T09:23:33.746Z,5.30
2018-04-23T09:26:02.029Z,5.53
2018-04-23T09:28:30.312Z,5.73
2018-04-23T09:30:57.848Z,5.10
2018-04-23T09:33:25.355Z,5.10
2018-04-23T09:35:52.859Z,4.93
2018-04-23T09:38:21.254Z,5.20
2018-04-23T09:40:48.757Z,4.93
2018-04-23T09:43:16.258Z,5.00
2018-04-23T09:45:44.663Z,5.07
2018-04-23T09:48:12.198Z,4.40
2018-04-23T09:50:40.483Z,4.73
2018-04-23T09:53:08.932Z,5.70
2018-04-23T09:55:36.439Z,4.33
2018-04-23T09:58:04.718Z,4.70
2018-04-23T10:00:32.344Z,4.70
2018-04-23T10:03:14.741Z,5.80
2018-04-23T10:05:42.368Z,4.90
2018-04-23T10:08:10.650Z,5.17
2018-04-23T10:10:38.162Z,5.00
2018-04-23T10:13:05.712Z,5.60
2018-04-23T10:15:33.993Z,5.67
2018-04-23T10:18:01.511Z,5.97
2018-04-23T10:20:29.135Z,5.80
2018-04-23T10:22:57.411Z,6.27
2018-04-23T10:25:25.800Z,5.90
2018-04-23T10:27:54.097Z,5.67
2018-04-23T10:30:21.618Z,5.63
2018-04-23T10:32:49.252Z,5.30
2018-04-23T10:35:16.774Z,6.00
2018-04-23T10:37:45.063Z,6.10
2018-04-23T10:40:13.467Z,5.77
2018-04-23T10:42:40.994Z,5.47
2018-04-23T10:45:08.527Z,6.53
2018-04-23T10:47:36.160Z,5.53
2018-04-23T10:50:03.695Z,6.97
2018-04-23T10:52:32.106Z,6.40
2018-04-23T10:54:59.642Z,6.90
2018-04-23T10:57:27.968Z,5.83
2018-04-23T10:59:55.515Z,5.93
2018-04-23T11:02:23.053Z,5.33
2018-04-23T11:04:51.359Z,6.63
2018-04-23T11:07:18.867Z,5.93
2018-04-23T11:09:46.416Z,6.53
2018-04-23T11:12:13.924Z,6.33
2018-04-23T11:14:42.286Z,6.83
2018-04-23T11:17:09.871Z,7.13
2018-04-23T11:19:38.188Z,6.93
2018-04-23T11:22:05.709Z,7.33
2018-04-23T11:24:34.106Z,6.60
2018-04-23T11:27:02.377Z,7.40
2018-04-23T11:29:30.691Z,7.07
2018-04-23T11:31:58.210Z,7.13
2018-04-23T11:34:25.737Z,7.37
2018-04-23T11:36:53.483Z,7.33
2018-04-23T11:39:20.992Z,8.03
2018-04-23T11:41:48.505Z,8.77
2018-04-23T11:44:16.075Z,8.23
2018-04-23T11:46:43.588Z,8.57
2018-04-23T11:49:11.120Z,8.30
2018-04-23T11:51:38.751Z,8.83
2018-04-23T11:54:07.035Z,8.20
2018-04-23T11:56:35.320Z,7.93
2018-04-23T11:59:02.872Z,8.27
2018-04-23T12:01:31.148Z,7.87
2018-04-23T12:03:58.658Z,8.97
2018-04-23T12:06:26.270Z,7.97
2018-04-23T12:08:53.783Z,8.93
2018-04-23T12:11:21.313Z,9.40
2018-04-23T12:13:49.741Z,9.77
2018-04-23T12:16:17.291Z,10.07
2018-04-23T12:18:44.815Z,9.60
2018-04-23T12:21:12.472Z,8.83
2018-04-23T12:23:39.994Z,9.70
2018-04-23T12:26:07.524Z,9.77
2018-04-23T12:28:35.936Z,9.20
2018-04-23T12:31:03.456Z,10.13
2018-04-23T12:33:30.996Z,11.00
2018-04-23T12:35:58.651Z,10.03
2018-04-23T12:38:26.170Z,10.00
2018-04-23T12:40:53.685Z,10.50
2018-04-23T12:43:21.343Z,9.87
2018-04-23T12:45:48.878Z,9.60
2018-04-23T12:48:16.400Z,10.47
2018-04-23T12:50:44.049Z,10.20
2018-04-23T12:53:11.608Z,9.93
2018-04-23T12:55:39.133Z,10.10
2018-04-23T12:58:07.674Z,9.17
2018-04-23T13:00:35.191Z,9.67
2018-04-23T13:03:02.715Z,8.50
2018-04-23T13:05:30.347Z,7.50
2018-04-23T13:07:57.863Z,6.70
2018-04-23T13:10:26.147Z,6.67
2018-04-23T13:12:54.456Z,6.17
2018-04-23T13:15:22.011Z,6.50
2018-04-23T13:17:49.563Z,6.93
2018-04-23T13:20:17.981Z,6.07
2018-04-23T13:22:45.557Z,7.07
2018-04-23T13:25:13.068Z,6.77
2018-04-23T13:27:41.493Z,6.90
2018-04-23T13:30:09.033Z,6.53
2018-04-23T13:32:37.134Z,6.40
2018-04-23T13:35:04.817Z,6.53
2018-04-23T13:37:32.319Z,7.10
2018-04-23T13:40:00.602Z,6.57
2018-04-23T13:42:29.020Z,7.20
2018-04-23T13:44:56.605Z,7.07
2018-04-23T13:47:24.117Z,7.20
2018-04-23T13:49:52.537Z,6.90
2018-04-23T13:52:20.057Z,7.87
2018-04-23T13:54:48.355Z,7.50
2018-04-23T13:57:16.036Z,7.00
2018-04-23T13:59:43.591Z,7.10
2018-04-23T14:02:11.119Z,6.93
2018-04-23T14:04:38.727Z,8.00
2018-04-23T14:07:06.298Z,7.43
2018-04-23T14:09:33.814Z,7.93
2018-04-23T14:12:01.413Z,6.97
2018-04-23T14:14:29.055Z,7.50
2018-04-23T14:16:56.634Z,7.40
2018-04-23T14:19:25.049Z,20.57
2018-04-23T14:21:52.616Z,8.00
2018-04-23T14:24:20.147Z,6.90
2018-04-23T14:26:48.439Z,7.27
2018-04-23T14:29:16.010Z,7.17
2018-04-23T14:31:43.548Z,7.70
2018-04-23T14:34:11.978Z,7.47
2018-04-23T14:36:39.511Z,6.87
2018-04-23T14:39:07.056Z,7.40
2018-04-23T14:41:35.477Z,7.23
2018-04-23T14:44:02.995Z,7.40
2018-04-23T14:46:30.523Z,6.40
2018-04-23T14:48:58.327Z,7.17
2018-04-23T14:51:25.847Z,7.43
2018-04-23T14:53:53.415Z,5.87
2018-04-23T14:56:21.068Z,7.07
2018-04-23T14:58:48.594Z,6.03
2018-04-23T15:01:16.944Z,5.57
2018-04-23T15:03:44.494Z,5.60
2018-04-23T15:06:12.194Z,6.27
2018-04-23T15:08:39.859Z,5.87
2018-04-23T15:11:07.451Z,5.13
2018-04-23T15:13:35.742Z,4.50
2018-04-23T15:16:03.488Z,5.20
2018-04-23T15:18:31.775Z,4.83
2018-04-23T15:21:00.205Z,4.63
2018-04-23T15:23:27.752Z,4.87
2018-04-23T15:25:55.372Z,4.83
2018-04-23T15:28:23.004Z,4.87
2018-04-23T15:30:50.553Z,4.83
2018-04-23T15:33:18.066Z,4.80
2018-04-23T15:35:45.779Z,4.90
2018-04-23T15:38:13.345Z,4.93
2018-04-23T15:40:40.853Z,4.43
2018-04-23T15:43:08.412Z,4.73
2018-04-23T15:45:36.712Z,5.17
2018-04-23T15:48:04.271Z,4.80
2018-04-23T15:50:31.828Z,4.37
2018-04-23T15:53:00.128Z,4.37
2018-04-23T15:55:28.403Z,4.67
2018-04-23T15:57:56.055Z,4.27
2018-04-23T16:00:23.591Z,4.67
2018-04-23T16:02:51.135Z,4.67
2018-04-23T16:05:18.784Z,4.43
2018-04-23T16:07:47.073Z,5.03
2018-04-23T16:10:14.598Z,4.73
2018-04-23T16:12:42.162Z,5.03
2018-04-23T16:15:09.700Z,4.60
2018-04-23T16:17:37.202Z,5.73
2018-04-23T16:20:04.861Z,5.20
2018-04-23T16:22:32.390Z,5.40
2018-04-23T16:24:59.907Z,4.70
2018-04-23T16:27:28.492Z,5.13
2018-04-23T16:29:56.893Z,5.93
2018-04-23T16:32:24.579Z,5.87
2018-04-23T16:34:52.309Z,6.33
2018-04-23T16:37:20.694Z,6.63
2018-04-23T16:39:49.046Z,7.47
2018-04-23T16:42:16.627Z,6.77
2018-04-23T16:44:44.205Z,7.17
2018-04-23T16:47:12.621Z,7.93
2018-04-23T16:49:40.195Z,10.30
2018-04-23T16:52:07.748Z,6.17
2018-04-23T16:54:35.347Z,6.20
2018-04-23T16:57:02.901Z,5.63
2018-04-23T16:59:30.463Z,6.13
2018-04-23T17:01:58.079Z,5.33
2018-04-23T17:04:26.473Z,6.00
2018-04-23T17:06:54.133Z,7.40
2018-04-23T17:09:22.450Z,6.77
2018-04-23T17:11:49.999Z,7.73
2018-04-23T17:14:17.523Z,8.50
2018-04-23T17:16:45.062Z,6.80
2018-04-23T17:19:12.582Z,7.47
2018-04-23T17:21:40.139Z,7.77
2018-04-23T17:24:07.716Z,7.13
2018-04-23T17:26:35.244Z,8.07
2018-04-23T17:29:02.800Z,8.10
2018-04-23T17:31:30.358Z,8.27
2018-04-23T17:33:57.892Z,9.07
2018-04-23T17:36:25.430Z,9.67
2018-04-23T17:38:52.982Z,8.70
2018-04-23T17:41:21.294Z,8.10
2018-04-23T17:43:48.857Z,8.53
2018-04-23T17:46:16.428Z,7.93
2018-04-23T17:48:43.998Z,7.77
2018-04-23T17:51:11.507Z,8.77
2018-04-23T17:53:39.846Z,7.43
2018-04-23T17:56:07.470Z,7.13
2018-04-23T17:58:35.825Z,7.33
2018-04-23T18:01:03.372Z,7.63
2018-04-23T18:03:30.959Z,7.27
2018-04-23T18:05:58.562Z,7.37
2018-04-23T18:08:26.149Z,8.00
2018-04-23T18:10:53.726Z,7.30
2018-04-23T18:13:21.412Z,8.20
2018-04-23T18:15:48.985Z,10.27
2018-04-23T18:18:16.521Z,9.83
2018-04-23T18:20:44.059Z,10.63
2018-04-23T18:23:11.859Z,10.60
2018-04-23T18:25:39.402Z,11.27
2018-04-23T18:28:06.934Z,10.90
2018-04-23T18:30:35.269Z,10.33
2018-04-23T18:33:02.799Z,10.83
2018-04-23T18:35:30.402Z,11.50
2018-04-23T18:37:57.995Z,11.73
2018-04-23T18:40:26.303Z,10.83
2018-04-23T18:42:53.847Z,12.73
2018-04-23T18:45:22.189Z,12.03
2018-04-23T18:47:49.776Z,13.00
2018-04-23T18:50:17.327Z,13.90
2018-04-23T18:52:44.922Z,14.77
2018-04-23T18:55:13.412Z,15.23
2018-04-23T18:57:42.097Z,15.77
2018-04-23T19:00:10.440Z,15.37
2018-04-23T19:02:38.472Z,14.13
2018-04-23T19:05:06.066Z,13.10
2018-04-23T19:07:33.647Z,14.03
2018-04-23T19:10:01.307Z,13.53
2018-04-23T19:12:28.867Z,14.83
2018-04-23T19:14:56.611Z,18.97
2018-04-23T19:17:24.192Z,18.83
2018-04-23T19:19:51.760Z,19.90
2018-04-23T19:22:19.294Z,17.73
2018-04-23T19:24:46.824Z,17.97
2018-04-23T19:27:14.411Z,18.30
2018-04-23T19:29:42.723Z,19.23
2018-04-23T19:32:10.282Z,18.00
2018-04-23T19:34:37.937Z,16.60
2018-04-23T19:37:05.512Z,13.97
2018-04-23T19:39:33.141Z,13.70
2018-04-23T19:42:01.537Z,13.57
2018-04-23T19:44:29.092Z,12.97
2018-04-23T19:46:56.664Z,10.67
2018-04-23T19:49:25.025Z,10.27
2018-04-23T19:51:52.619Z,11.10
2018-04-23T19:54:20.949Z,10.97
2018-04-23T19:56:48.563Z,11.03
2018-04-23T19:59:16.894Z,12.37
2018-04-23T20:01:44.460Z,11.27
2018-04-23T20:04:12.005Z,12.07
2018-04-23T20:06:39.550Z,14.03
2018-04-23T20:09:07.844Z,14.40
2018-04-23T20:11:35.428Z,15.17
2018-04-23T20:14:02.976Z,15.03
2018-04-23T20:16:30.514Z,15.20
2018-04-23T20:18:58.870Z,16.67
2018-04-23T20:21:26.434Z,17.37
2018-04-23T20:23:54.061Z,16.23
2018-04-23T20:26:21.645Z,15.60
2018-04-23T20:28:49.191Z,14.97
2018-04-23T20:31:16.726Z,13.70
2018-04-23T20:33:44.285Z,14.10
2018-04-23T20:36:12.787Z,13.53
2018-04-23T20:38:40.835Z,15.30
2018-04-23T20:41:08.831Z,15.17
2018-04-23T20:43:36.818Z,15.33
2018-04-23T20:46:04.803Z,15.57
2018-04-23T20:48:32.861Z,15.23
2018-04-23T20:51:00.876Z,18.40
2018-04-23T20:53:29.741Z,17.17
2018-04-23T20:55:57.677Z,17.33
2018-04-23T20:58:25.693Z,17.97
2018-04-23T21:00:53.770Z,18.63
2018-04-23T21:03:22.631Z,19.23
2018-04-23T21:05:50.528Z,17.70
2018-04-23T21:08:18.884Z,18.87
2018-04-23T21:10:47.242Z,17.87
2018-04-23T21:13:14.795Z,17.93
2018-04-23T21:15:42.345Z,17.20
2018-04-23T21:18:09.921Z,19.23
2018-04-23T21:20:37.486Z,18.50
2018-04-23T21:23:05.198Z,18.67
2018-04-23T21:25:32.765Z,19.03
2018-04-23T21:28:01.066Z,18.77
2018-04-23T21:30:28.615Z,18.50
2018-04-23T21:32:57.106Z,21.27
2018-04-23T21:35:24.673Z,20.17
2018-04-23T21:37:52.240Z,21.87
2018-04-23T21:40:19.833Z,23.27
2018-04-23T21:42:48.133Z,22.30
2018-04-23T21:45:15.669Z,22.33
2018-04-23T21:47:43.266Z,22.00
2018-04-23T21:50:10.817Z,22.57
2018-04-23T21:52:38.361Z,21.57
2018-04-23T21:55:05.943Z,22.40
2018-04-23T21:57:33.482Z,21.47
2018-04-23T22:00:01.043Z,22.27
2018-04-23T22:02:28.579Z,20.80
2018-04-23T22:04:56.888Z,22.20
2018-04-23T22:07:24.440Z,21.13
2018-04-23T22:09:52.376Z,20.40
2018-04-23T22:12:19.941Z,20.97
2018-04-23T22:14:47.463Z,20.67
2018-04-23T22:17:15.031Z,21.67
2018-04-23T22:19:43.433Z,23.10
2018-04-23T22:22:10.979Z,22.23
2018-04-23T22:24:38.537Z,24.40
2018-04-23T22:27:06.063Z,25.07
2018-04-23T22:29:34.604Z,29.10
2018-04-23T22:32:02.231Z,31.37
2018-04-23T22:34:29.787Z,27.90
2018-04-23T22:36:58.075Z,29.50
2018-04-23T22:39:26.392Z,29.97
2018-04-23T22:41:53.935Z,28.93
2018-04-23T22:44:21.506Z,27.00
2018-04-23T22:46:49.072Z,26.70
2018-04-23T22:49:16.633Z,25.90
2018-04-23T22:51:44.160Z,26.83
2018-04-23T22:54:12.565Z,25.00
2018-04-23T22:56:40.084Z,25.70
2018-04-23T22:59:07.616Z,25.00
2018-04-23T23:01:35.187Z,24.77
2018-04-23T23:04:02.726Z,24.83
2018-04-23T23:06:30.304Z,25.90
2018-04-23T23:08:57.863Z,27.07
2018-04-23T23:11:25.396Z,23.27
2018-04-23T23:13:53.702Z,23.43
2018-04-23T23:16:21.275Z,23.30
2018-04-23T23:18:48.802Z,24.83
2018-04-23T23:21:17.084Z,25.37
2018-04-23T23:23:45.409Z,26.90
2018-04-23T23:26:12.927Z,25.17
2018-04-23T23:28:41.217Z,27.33
2018-04-23T23:31:09.552Z,25.77
2018-04-23T23:33:37.096Z,26.47
2018-04-23T23:36:04.610Z,26.60
2018-04-23T23:38:32.178Z,25.97
2018-04-23T23:40:59.705Z,26.50
2018-04-23T23:43:27.223Z,26.77
2018-04-23T23:45:54.764Z,25.90
2018-04-23T23:48:22.295Z,27.07
2018-04-23T23:50:50.600Z,26.53
2018-04-23T23:53:18.134Z,25.97
2018-04-23T23:55:45.647Z,25.80
2018-04-23T23:58:13.923Z,26.60
